createdAt,value
2022-12-24T02:11:19.611Z,99694.52
2022-12-24T02:13:58.806Z,99693.40
2022-12-24T02:16:45.360Z,99691.63
2022-12-24T02:19:37.178Z,99690.34
2022-12-24T02:22:15.835Z,99691.75
2022-12-24T02:25:06.928Z,99691.34
2022-12-24T02:27:55.182Z,99694.98
2022-12-24T02:30:32.743Z,99698.99
2022-12-24T02:33:13.720Z,99697.38
2022-12-24T02:35:55.766Z,99694.27
2022-12-24T02:38:27.503Z,99695.45
2022-12-24T02:40:58.061Z,99701.45
2022-12-24T02:43:28.837Z,99700.55
2022-12-24T02:45:59.719Z,99701.75
2022-12-24T02:48:26.653Z,99697.65
2022-12-24T02:50:57.790Z,99692.15
2022-12-24T02:53:24.586Z,99689.82
2022-12-24T02:56:18.776Z,99689.46
2022-12-24T02:59:14.413Z,99688.05
2022-12-24T03:01:52.488Z,99689.13
2022-12-24T03:04:39.706Z,99693.02
2022-12-24T03:07:17.024Z,99693.92
2022-12-24T03:09:50.963Z,99690.52
2022-12-24T03:12:21.341Z,99686.02
2022-12-24T03:14:47.992Z,99686.24
2022-12-24T03:17:14.710Z,99687.19
2022-12-24T03:19:41.457Z,99691.40
2022-12-24T03:22:09.907Z,99692.62
2022-12-24T03:24:36.750Z,99690.78
2022-12-24T03:27:04.959Z,99685.05
2022-12-24T03:29:31.889Z,99686.48
2022-12-24T03:32:02.932Z,99690.82
2022-12-24T03:34:29.941Z,99686.10
2022-12-24T03:36:56.663Z,99687.02
2022-12-24T03:39:23.638Z,99684.67
2022-12-24T03:41:50.343Z,99679.21
2022-12-24T03:44:17.092Z,99678.56
2022-12-24T03:46:43.753Z,99677.70
2022-12-24T03:49:10.379Z,99679.23
2022-12-24T03:51:37.126Z,99684.14
2022-12-24T03:54:03.884Z,99687.54
2022-12-24T03:56:30.540Z,99686.33
2022-12-24T03:58:57.296Z,99692.88
2022-12-24T04:01:24.052Z,99693.29
2022-12-24T04:03:50.936Z,99693.77
2022-12-24T04:06:17.980Z,99694.33
2022-12-24T04:08:44.727Z,99690.77
2022-12-24T04:11:12.592Z,99684.12
2022-12-24T04:13:39.377Z,99687.40
2022-12-24T04:16:07.979Z,99682.41
2022-12-24T04:18:35.010Z,99681.70
2022-12-24T04:21:01.667Z,99678.53
2022-12-24T04:23:30.820Z,99676.92
2022-12-24T04:26:00.019Z,99678.48
2022-12-24T04:28:26.710Z,99675.13
2022-12-24T04:30:58.455Z,99673.19
2022-12-24T04:33:25.076Z,99672.69
2022-12-24T04:35:51.745Z,99673.01
2022-12-24T04:38:18.557Z,99679.56
2022-12-24T04:40:45.256Z,99678.38
2022-12-24T04:43:12.277Z,99681.62
2022-12-24T04:45:39.002Z,99678.58
2022-12-24T04:48:05.707Z,99679.58
2022-12-24T04:50:32.393Z,99678.46
2022-12-24T04:52:59.049Z,99675.42
2022-12-24T04:55:25.768Z,99675.95
2022-12-24T04:57:53.236Z,99672.01
2022-12-24T05:00:20.376Z,99671.58
2022-12-24T05:02:47.135Z,99673.81
2022-12-24T05:05:14.013Z,99677.04
2022-12-24T05:07:40.655Z,99675.27
2022-12-24T05:10:07.955Z,99674.27
2022-12-24T05:12:34.811Z,99672.88
2022-12-24T05:15:01.524Z,99667.42
2022-12-24T05:17:28.696Z,99670.90
2022-12-24T05:19:55.432Z,99668.52
2022-12-24T05:22:40.745Z,99669.41
2022-12-24T05:25:27.783Z,99671.13
2022-12-24T05:27:54.746Z,99672.54
2022-12-24T05:30:21.467Z,99673.44
2022-12-24T05:32:48.200Z,99671.54
2022-12-24T05:35:15.070Z,99671.14
2022-12-24T05:37:41.744Z,99680.20
2022-12-24T05:40:09.165Z,99685.17
2022-12-24T05:42:35.869Z,99684.24
2022-12-24T05:45:02.665Z,99682.60
2022-12-24T05:47:29.552Z,99687.65
2022-12-24T05:49:56.222Z,99689.40
2022-12-24T05:52:22.912Z,99688.36
2022-12-24T05:54:49.662Z,99688.89
2022-12-24T05:57:16.617Z,99690.92
2022-12-24T05:59:43.327Z,99696.16
2022-12-24T06:02:09.983Z,99700.88
2022-12-24T06:04:36.863Z,99701.21
2022-12-24T06:07:03.656Z,99703.13
2022-12-24T06:09:30.354Z,99696.66
2022-12-24T06:11:57.097Z,99703.94
2022-12-24T06:14:23.864Z,99705.63
2022-12-24T06:16:50.525Z,99703.74
2022-12-24T06:19:17.207Z,99700.48
2022-12-24T06:21:43.908Z,99706.00
2022-12-24T06:24:10.607Z,99709.15
2022-12-24T06:26:37.281Z,99703.38
2022-12-24T06:29:04.015Z,99703.33
2022-12-24T06:31:30.698Z,99697.25
2022-12-24T06:33:57.485Z,99695.84
2022-12-24T06:36:24.916Z,99699.92
2022-12-24T06:38:51.862Z,99697.38
2022-12-24T06:41:18.882Z,99700.97
2022-12-24T06:43:46.814Z,99705.42
2022-12-24T06:46:13.878Z,99706.61
2022-12-24T06:48:40.779Z,99699.66
2022-12-24T06:51:07.731Z,99692.01
2022-12-24T06:53:34.427Z,99698.81
2022-12-24T06:56:08.755Z,99695.95
2022-12-24T06:58:35.615Z,99697.38
2022-12-24T07:01:03.423Z,99703.75
2022-12-24T07:03:30.322Z,99707.62
2022-12-24T07:05:57.198Z,99710.73
2022-12-24T07:08:24.563Z,99714.55
2022-12-24T07:10:54.336Z,99720.39
2022-12-24T07:13:21.526Z,99722.00
2022-12-24T07:15:56.475Z,99717.92
2022-12-24T07:18:23.209Z,99724.32
2022-12-24T07:20:49.857Z,99717.85
2022-12-24T07:23:16.501Z,99713.77
2022-12-24T07:25:43.309Z,99713.90
2022-12-24T07:28:10.016Z,99710.86
2022-12-24T07:30:36.706Z,99709.62
2022-12-24T07:33:03.526Z,99714.08
2022-12-24T07:35:30.306Z,99715.71
2022-12-24T07:37:56.966Z,99720.36
2022-12-24T07:40:23.646Z,99719.12
2022-12-24T07:42:50.297Z,99714.42
2022-12-24T07:45:17.085Z,99709.99
2022-12-24T07:47:43.813Z,99713.54
2022-12-24T07:50:10.786Z,99709.31
2022-12-24T07:52:37.523Z,99711.67
2022-12-24T07:55:04.368Z,99712.21
2022-12-24T07:57:31.043Z,99708.36
2022-12-24T07:59:57.923Z,99704.42
2022-12-24T08:02:24.771Z,99716.30
2022-12-24T08:04:51.660Z,99719.98
2022-12-24T08:07:18.484Z,99720.95
2022-12-24T08:09:46.222Z,99725.23
2022-12-24T12:09:23.583Z,99721.05
2022-12-24T12:12:02.262Z,99716.88
2022-12-24T12:14:54.139Z,99714.77
2022-12-24T12:17:29.962Z,99712.83
2022-12-24T12:20:18.536Z,99714.58
2022-12-24T12:23:04.555Z,99713.80
2022-12-24T12:25:38.133Z,99718.89
2022-12-24T12:28:07.964Z,99730.92
2022-12-24T12:30:34.639Z,99728.09
2022-12-24T12:33:18.626Z,99730.36
2022-12-24T12:35:45.851Z,99743.58
2022-12-24T12:38:14.242Z,99746.77
2022-12-24T12:40:55.555Z,99747.92
2022-12-24T12:43:30.061Z,99747.31
2022-12-24T12:46:35.042Z,99750.39
2022-12-24T12:49:26.886Z,99751.55
2022-12-24T12:51:59.787Z,99755.33
2022-12-24T12:54:54.551Z,99748.63
2022-12-24T12:57:22.425Z,99754.52
2022-12-24T12:59:57.015Z,99754.94
2022-12-24T13:02:37.247Z,99756.43
2022-12-24T13:05:28.379Z,99754.37
2022-12-24T13:08:16.993Z,99754.13
2022-12-24T13:11:12.651Z,99754.46
2022-12-24T13:13:58.190Z,99752.67
2022-12-24T13:16:34.168Z,99757.74
2022-12-24T13:19:31.609Z,99767.19
2022-12-24T13:22:03.228Z,99765.85
2022-12-24T13:24:30.949Z,99767.80
2022-12-24T13:27:17.876Z,99767.13
2022-12-24T13:30:08.778Z,99772.00
2022-12-24T13:32:46.009Z,99777.70
2022-12-24T13:35:19.107Z,99779.70
2022-12-24T13:37:46.119Z,99778.20
2022-12-24T13:40:25.597Z,99778.49
2022-12-24T13:43:04.838Z,99779.97
2022-12-24T13:45:31.686Z,99775.53
2022-12-24T13:48:25.522Z,99782.09
2022-12-24T13:50:53.522Z,99788.98
2022-12-24T13:53:33.526Z,99794.54
2022-12-24T13:56:07.579Z,99800.59
2022-12-24T13:58:38.762Z,99799.00
2022-12-24T14:01:08.876Z,99802.05
2022-12-24T14:03:57.051Z,99800.33
2022-12-24T14:06:24.759Z,99797.21
2022-12-24T14:08:53.257Z,99798.28
2022-12-24T14:11:21.755Z,99801.00
2022-12-24T14:13:48.492Z,99802.95
2022-12-24T14:16:31.163Z,99807.27
2022-12-24T14:18:59.505Z,99815.19
2022-12-24T14:21:32.232Z,99820.06
2022-12-24T14:24:16.011Z,99825.81
2022-12-24T14:26:52.131Z,99826.79
2022-12-24T14:29:27.011Z,99817.09
2022-12-24T14:31:54.996Z,99826.41
2022-12-24T14:34:21.746Z,99833.59
2022-12-24T14:36:48.626Z,99839.30
2022-12-24T14:39:35.781Z,99843.44
2022-12-24T14:42:05.329Z,99846.44
2022-12-24T14:44:40.900Z,99853.14
2022-12-24T14:47:30.104Z,99852.10
2022-12-24T14:50:04.955Z,99854.04
2022-12-24T14:53:03.917Z,99859.56
2022-12-24T14:55:35.623Z,99863.74
2022-12-24T14:58:28.962Z,99863.17
2022-12-24T15:01:03.568Z,99862.39
2022-12-24T15:03:31.932Z,99861.48
2022-12-24T15:06:06.420Z,99868.32
2022-12-24T15:08:38.081Z,99862.20
2022-12-24T15:11:07.477Z,99870.86
2022-12-24T15:13:42.870Z,99878.55
2022-12-24T15:16:14.692Z,99881.19
2022-12-24T15:18:54.564Z,99886.41
2022-12-24T15:21:31.258Z,99881.45
2022-12-24T15:23:58.080Z,99879.06
2022-12-24T15:26:32.618Z,99874.32
2022-12-24T15:29:03.093Z,99877.04
2022-12-24T15:31:30.371Z,99878.20
2022-12-24T15:33:57.412Z,99875.67
2022-12-24T15:36:34.826Z,99876.96
2022-12-24T15:39:08.763Z,99876.46
2022-12-24T15:42:04.069Z,99879.20
2022-12-24T15:44:35.530Z,99883.95
2022-12-24T15:47:03.102Z,99884.50
2022-12-24T15:49:30.066Z,99887.54
2022-12-24T15:52:08.397Z,99884.52
2022-12-24T15:54:35.546Z,99886.08
2022-12-24T15:57:13.282Z,99884.71
2022-12-24T15:59:40.058Z,99883.86
2022-12-24T16:02:31.741Z,99887.32
2022-12-24T16:05:29.836Z,99886.19
2022-12-24T16:08:15.039Z,99891.95
2022-12-24T16:10:43.592Z,99898.36
2022-12-24T16:13:19.242Z,99901.95
2022-12-24T16:15:54.265Z,99903.88
2022-12-24T16:18:25.900Z,99902.57
2022-12-24T16:20:53.453Z,99904.97
2022-12-24T16:23:30.307Z,99904.61
2022-12-24T16:25:58.139Z,99905.77
2022-12-24T16:28:26.340Z,99907.61
2022-12-24T16:30:55.649Z,99904.17
2022-12-24T16:33:23.847Z,99902.95
2022-12-24T16:35:50.637Z,99904.17
2022-12-24T16:38:17.326Z,99905.04
2022-12-24T16:40:44.128Z,99905.39
2022-12-24T16:43:29.326Z,99904.84
2022-12-24T16:46:05.813Z,99904.98
2022-12-24T16:48:36.241Z,99902.65
2022-12-24T16:51:03.054Z,99902.59
2022-12-24T16:53:29.803Z,99902.02
2022-12-24T16:55:56.477Z,99898.13
2022-12-24T16:58:23.179Z,99901.40
2022-12-24T17:00:49.964Z,99902.92
2022-12-24T17:03:16.958Z,99902.53
2022-12-24T17:05:43.956Z,99910.62
2022-12-24T17:08:10.732Z,99904.69
2022-12-24T17:10:37.393Z,99903.23
2022-12-24T17:13:04.180Z,99905.74
2022-12-24T17:15:31.106Z,99913.96
2022-12-24T17:17:57.868Z,99920.48
2022-12-24T17:20:24.886Z,99918.77
2022-12-24T17:22:52.094Z,99923.98
2022-12-24T17:25:18.918Z,99928.13
2022-12-24T17:27:45.595Z,99929.36
2022-12-24T17:30:12.557Z,99933.27
2022-12-24T17:32:39.694Z,99927.98
2022-12-24T17:35:07.619Z,99925.15
2022-12-24T17:37:34.400Z,99925.11
2022-12-24T17:40:01.220Z,99930.30
2022-12-24T17:42:28.056Z,99933.48
2022-12-24T17:44:54.758Z,99938.95
2022-12-24T17:47:21.424Z,99940.16
2022-12-24T17:49:48.157Z,99946.14
2022-12-24T17:52:15.082Z,99945.73
2022-12-24T17:54:41.757Z,99951.31
2022-12-24T17:57:08.616Z,99951.33
2022-12-24T17:59:35.455Z,99956.86
2022-12-24T18:02:02.222Z,99955.39
2022-12-24T18:04:29.127Z,99954.19
2022-12-24T18:07:02.071Z,99951.02
2022-12-24T18:09:29.824Z,99953.05
2022-12-24T18:11:56.615Z,99956.36
2022-12-24T18:14:23.365Z,99957.56
2022-12-24T18:16:50.169Z,99958.08
2022-12-24T18:19:17.066Z,99955.77
2022-12-24T18:21:43.821Z,99953.74
2022-12-24T18:24:11.375Z,99954.36
2022-12-24T18:26:38.144Z,99956.11
2022-12-24T18:29:04.942Z,99960.41
2022-12-24T18:31:33.546Z,99969.14
2022-12-24T18:34:01.226Z,99971.25
2022-12-24T18:36:27.959Z,99978.02
2022-12-24T18:38:54.667Z,99975.52
2022-12-24T18:41:23.442Z,99976.51
2022-12-24T18:43:50.162Z,99980.64
2022-12-24T18:46:28.053Z,99986.54
2022-12-24T18:48:55.170Z,99988.41
2022-12-24T18:51:22.577Z,99993.38
2022-12-24T18:53:50.116Z,99993.63
2022-12-24T18:56:18.608Z,99998.52
2022-12-24T20:04:39.758Z,100057.14
2022-12-24T20:07:06.573Z,100061.65
2022-12-24T20:09:34.079Z,100062.91
2022-12-24T20:12:01.049Z,100063.75
2022-12-24T20:14:28.693Z,100066.85
2022-12-24T20:16:55.541Z,100067.66
2022-12-24T20:19:22.496Z,100071.79
2022-12-24T20:21:49.422Z,100070.97
2022-12-24T20:24:16.245Z,100076.49
2022-12-24T20:26:42.992Z,100077.10
2022-12-24T20:29:10.195Z,100076.84
2022-12-24T20:31:37.308Z,100076.39
2022-12-24T20:34:05.296Z,100083.61
2022-12-24T20:36:32.217Z,100083.73
2022-12-24T20:38:59.404Z,100083.27
2022-12-24T20:41:27.829Z,100082.45
2022-12-24T20:43:54.596Z,100083.17
2022-12-24T20:46:22.514Z,100085.58
2022-12-24T20:48:49.684Z,100089.23
2022-12-24T20:51:24.596Z,100088.33
2022-12-24T20:53:56.691Z,100085.55
2022-12-24T20:56:23.863Z,100085.67
2022-12-24T20:58:51.250Z,100091.78
2022-12-24T21:01:24.580Z,100096.15
2022-12-24T21:03:52.937Z,100091.80
2022-12-24T21:06:20.153Z,100092.04
2022-12-24T21:08:48.808Z,100091.46
2022-12-24T21:11:34.824Z,100093.26
2022-12-24T21:14:04.144Z,100095.58
2022-12-24T21:16:31.796Z,100099.31
2022-12-24T21:19:00.192Z,100103.93
2022-12-24T21:21:26.962Z,100103.88
2022-12-24T21:23:53.759Z,100104.27
2022-12-24T21:26:20.459Z,100106.27
2022-12-24T21:28:47.662Z,100107.86
2022-12-24T21:31:15.678Z,100106.92
2022-12-24T21:33:44.608Z,100106.38
2022-12-24T21:36:12.051Z,100108.58
2022-12-24T21:38:38.901Z,100111.31
2022-12-24T21:41:11.322Z,100108.98
2022-12-24T21:43:38.375Z,100109.87
2022-12-24T21:46:13.781Z,100110.64
2022-12-24T21:48:59.156Z,100110.34
2022-12-24T21:51:26.590Z,100107.23
2022-12-24T21:54:11.931Z,100106.42
2022-12-24T21:56:57.484Z,100109.15
2022-12-24T21:59:27.147Z,100105.35
2022-12-24T22:01:54.983Z,100112.33
2022-12-24T22:04:22.051Z,100109.02
2022-12-24T22:07:07.523Z,100112.42
2022-12-24T22:09:53.256Z,100110.48
2022-12-24T22:12:20.118Z,100112.94
2022-12-24T22:14:47.015Z,100113.80
2022-12-24T22:17:15.284Z,100108.17
2022-12-24T22:19:43.842Z,100107.58
2022-12-24T22:22:10.683Z,100113.69
2022-12-24T22:24:37.412Z,100113.23
2022-12-24T22:27:04.115Z,100116.34
2022-12-24T22:29:31.024Z,100122.94
2022-12-24T22:31:57.884Z,100126.07
2022-12-24T22:34:24.640Z,100131.42
2022-12-24T22:36:51.411Z,100136.65
2022-12-24T22:39:18.193Z,100139.91
2022-12-24T22:41:44.925Z,100138.43
2022-12-24T22:44:12.397Z,100143.64
2022-12-24T22:46:39.182Z,100144.91
2022-12-24T22:49:05.945Z,100145.23
2022-12-24T22:51:32.686Z,100155.20
2022-12-24T22:53:59.878Z,100158.72
2022-12-24T22:56:26.623Z,100158.16
2022-12-24T22:58:54.148Z,100163.39
2022-12-24T23:01:32.218Z,100166.02
2022-12-24T23:03:59.454Z,100165.65
2022-12-24T23:06:26.653Z,100164.37
2022-12-24T23:08:53.486Z,100164.73
2022-12-24T23:11:20.549Z,100166.90
2022-12-24T23:14:06.241Z,100166.98
2022-12-24T23:16:33.147Z,100176.56
2022-12-24T23:19:00.748Z,100179.20
2022-12-24T23:21:27.959Z,100177.62
2022-12-24T23:23:56.446Z,100178.02
2022-12-24T23:26:23.420Z,100171.15
2022-12-24T23:28:50.171Z,100169.95
2022-12-24T23:31:17.183Z,100170.66
2022-12-24T23:33:43.948Z,100171.05
2022-12-24T23:36:10.709Z,100176.25
2022-12-24T23:38:37.498Z,100181.09
2022-12-24T23:41:05.374Z,100179.30
2022-12-24T23:43:32.695Z,100184.50
2022-12-24T23:45:59.532Z,100186.14
2022-12-24T23:48:27.131Z,100189.89
2022-12-24T23:51:04.129Z,100195.60
2022-12-24T23:53:31.060Z,100195.31
2022-12-24T23:55:57.764Z,100198.56
2022-12-24T23:58:24.526Z,100203.39
